createdAt,value
2023-01-15T00:00:12.053Z,99357.28
2023-01-15T00:07:48.063Z,99359.97
2023-01-15T00:15:22.111Z,99344.88
2023-01-15T00:22:57.176Z,99346.66
2023-01-15T00:30:31.419Z,99325.38
2023-01-15T00:38:06.719Z,99315.59
2023-01-15T00:45:40.522Z,99290.78
2023-01-15T00:53:15.681Z,99300.53
2023-01-15T01:00:55.381Z,99280.16
2023-01-15T01:08:32.270Z,99281.91
2023-01-15T01:16:22.018Z,99273.91
2023-01-15T01:23:59.619Z,99265.94
2023-01-15T01:31:33.505Z,99293.41
2023-01-15T01:39:13.247Z,99272.09
2023-01-15T01:46:46.980Z,99264.09
2023-01-15T01:54:24.923Z,99273.88
2023-01-15T02:01:59.190Z,99272.97
2023-01-15T02:09:34.644Z,99265.88
2023-01-15T02:17:16.430Z,99240.16
2023-01-15T02:25:01.862Z,99273.00
2023-01-15T02:32:42.087Z,99257.00
2023-01-15T02:40:16.788Z,99249.03
2023-01-15T02:47:54.311Z,99245.50
2023-01-15T02:55:31.788Z,99237.47
2023-01-15T03:03:15.055Z,99234.81
2023-01-15T03:10:55.082Z,99237.50
2023-01-15T03:18:34.959Z,99236.63
2023-01-15T03:26:08.827Z,99245.47
2023-01-15T03:33:44.221Z,99243.69
2023-01-15T03:41:25.946Z,99240.16
2023-01-15T03:49:10.595Z,99260.56
2023-01-15T03:56:55.452Z,99257.00
2023-01-15T04:04:32.650Z,99265.00
2023-01-15T04:12:07.500Z,99326.28
2023-01-15T04:19:43.670Z,99361.66
2023-01-15T04:27:17.567Z,99379.09
2023-01-15T04:34:52.666Z,99394.75
2023-01-15T04:42:44.337Z,99406.00
2023-01-15T04:50:19.781Z,99415.41
2023-01-15T04:57:53.736Z,99417.09
2023-01-15T05:05:29.035Z,99432.94
2023-01-15T05:13:02.790Z,99431.13
2023-01-15T05:20:38.834Z,99411.59
2023-01-15T05:28:12.637Z,99416.97
2023-01-15T05:35:47.833Z,99424.97
2023-01-15T05:43:21.896Z,99420.56
2023-01-15T05:50:57.163Z,99417.00
2023-01-15T05:58:31.108Z,99400.19
2023-01-15T06:06:06.647Z,99408.22
2023-01-15T06:13:41.282Z,99391.50
2023-01-15T06:21:16.656Z,99388.00
2023-01-15T06:28:51.025Z,99403.00
2023-01-15T06:36:29.739Z,99411.88
2023-01-15T06:44:21.554Z,99420.69
2023-01-15T06:51:56.974Z,99413.44
2023-01-15T06:59:30.954Z,99420.56
2023-01-15T07:07:07.675Z,99428.50
2023-01-15T07:14:41.450Z,99432.91
2023-01-15T07:22:16.750Z,99438.16
2023-01-15T07:29:52.332Z,99445.19
2023-01-15T07:37:28.725Z,99460.97
2023-01-15T07:45:20.413Z,99462.78
2023-01-15T07:52:55.867Z,99475.16
2023-01-15T08:00:29.774Z,99476.91
2023-01-15T08:08:05.738Z,99481.28
2023-01-15T08:15:41.245Z,99451.19
2023-01-15T08:23:16.410Z,99444.19
2023-01-15T08:30:50.459Z,99464.50
2023-01-15T08:38:26.070Z,99467.13
2023-01-15T08:46:01.029Z,99477.63
2023-01-15T08:53:36.767Z,99472.34
2023-01-15T09:01:15.827Z,99491.84
2023-01-15T09:08:51.612Z,99503.34
2023-01-15T09:16:26.799Z,99506.88
2023-01-15T09:24:03.085Z,99521.03
2023-01-15T09:31:38.582Z,99518.41
2023-01-15T09:39:13.917Z,99522.00
2023-01-15T09:47:03.074Z,99529.09
2023-01-15T09:54:49.812Z,99518.59
2023-01-15T10:02:28.579Z,99523.00
2023-01-15T10:10:07.537Z,99497.47
2023-01-15T10:17:43.766Z,99496.66
2023-01-15T10:25:26.343Z,99503.78
2023-01-15T10:33:12.736Z,99502.06
2023-01-15T10:41:19.694Z,99505.69
2023-01-15T10:48:58.556Z,99505.75
2023-01-15T10:56:39.235Z,99499.63
2023-01-15T11:04:14.094Z,99514.75
2023-01-15T11:12:09.932Z,99513.91
2023-01-15T11:19:45.219Z,99518.38
2023-01-15T11:27:24.018Z,99519.28
2023-01-15T11:35:00.515Z,99510.47
2023-01-15T11:42:55.821Z,99517.59
2023-01-15T11:50:47.597Z,99509.59
2023-01-15T11:58:24.943Z,99512.31
2023-01-15T12:06:02.695Z,99507.88
2023-01-15T12:13:50.108Z,99510.56
2023-01-15T12:21:39.862Z,99519.44
2023-01-15T12:29:22.814Z,99509.75
2023-01-15T12:37:01.295Z,99489.44
2023-01-15T12:45:00.839Z,99489.47
2023-01-15T12:52:41.161Z,99498.31
2023-01-15T13:00:21.419Z,99492.13
2023-01-15T13:07:59.988Z,99480.59
2023-01-15T13:15:41.308Z,99484.22
2023-01-15T13:23:31.921Z,99498.41
2023-01-15T13:31:22.958Z,99493.06
2023-01-15T13:39:01.641Z,99489.41
2023-01-15T13:46:36.914Z,99469.91
2023-01-15T13:54:16.733Z,99495.50
2023-01-15T14:01:52.091Z,99511.41
2023-01-15T14:09:32.064Z,99504.38
2023-01-15T14:17:26.420Z,99524.69
2023-01-15T14:25:22.848Z,99543.16
2023-01-15T14:33:10.697Z,99559.03
2023-01-15T14:40:55.664Z,99572.22
2023-01-15T14:48:40.458Z,99585.47
2023-01-15T14:56:22.027Z,99619.97
2023-01-15T15:03:59.993Z,99604.94
2023-01-15T15:11:57.807Z,99603.03
2023-01-15T15:19:40.601Z,99611.72
2023-01-15T15:27:19.200Z,99611.59
2023-01-15T15:34:56.299Z,99621.25
2023-01-15T15:42:51.226Z,99614.94
2023-01-15T15:50:29.302Z,99608.66
2023-01-15T15:58:04.628Z,99604.09
2023-01-15T16:05:40.283Z,99613.66
2023-01-15T16:13:22.438Z,99608.19
2023-01-15T16:20:59.690Z,99610.81
2023-01-15T16:28:39.275Z,99604.44
2023-01-15T16:36:14.584Z,99607.03
2023-01-15T16:43:54.631Z,99611.38
2023-01-15T16:51:34.758Z,99617.44
2023-01-15T16:59:16.930Z,99607.69
2023-01-15T17:07:02.419Z,99602.44
2023-01-15T17:14:36.425Z,99597.13
2023-01-15T17:22:16.855Z,99591.78
2023-01-15T17:29:50.864Z,99604.97
2023-01-15T17:37:26.341Z,99602.34
2023-01-15T17:45:00.343Z,99608.56
2023-01-15T17:52:35.492Z,99613.88
2023-01-15T18:00:29.658Z,99606.75
2023-01-15T18:08:08.205Z,99605.94
2023-01-15T18:15:42.027Z,99615.75
2023-01-15T18:23:18.591Z,99621.09
2023-01-15T18:30:55.435Z,99637.84
2023-01-15T18:38:30.680Z,99625.47
2023-01-15T18:46:29.109Z,99632.69
2023-01-15T18:54:06.278Z,99631.81
2023-01-15T19:01:41.406Z,99622.97
2023-01-15T19:09:16.840Z,99638.91
2023-01-15T19:17:08.479Z,99615.94
2023-01-15T19:24:44.333Z,99629.25
2023-01-15T19:32:18.326Z,99633.69
2023-01-15T19:39:53.882Z,99637.22
2023-01-15T19:47:54.442Z,99645.22
2023-01-15T19:55:31.429Z,99631.06
2023-01-15T20:03:05.610Z,99640.72
2023-01-15T20:10:41.655Z,99647.69
2023-01-15T20:18:17.267Z,99650.31
2023-01-15T20:25:54.217Z,99652.03
2023-01-15T20:33:28.066Z,99653.75
2023-01-15T20:41:22.293Z,99651.94
2023-01-15T20:49:13.322Z,99665.09
2023-01-15T20:56:48.649Z,99654.50
2023-01-15T21:04:25.384Z,99658.03
2023-01-15T21:12:00.497Z,99650.03
2023-01-15T21:19:34.315Z,99651.78
2023-01-15T21:27:09.576Z,99665.84
2023-01-15T21:34:43.311Z,99666.69
2023-01-15T21:42:38.409Z,99655.19
2023-01-15T21:50:12.338Z,99660.56
2023-01-15T21:57:48.933Z,99654.38
2023-01-15T22:05:23.304Z,99672.00
2023-01-15T22:12:58.501Z,99663.13
2023-01-15T22:20:32.206Z,99652.44
2023-01-15T22:28:08.423Z,99656.72
2023-01-15T22:35:42.350Z,99656.66
2023-01-15T22:43:17.702Z,99647.66
2023-01-15T22:50:51.408Z,99665.28
2023-01-15T22:58:27.101Z,99666.91
2023-01-15T23:06:04.318Z,99666.03
2023-01-15T23:13:40.109Z,99666.94
2023-01-15T23:21:15.988Z,99660.84
2023-01-15T23:28:53.356Z,99647.59
2023-01-15T23:36:27.721Z,99653.81
2023-01-15T23:44:20.906Z,99665.38
2023-01-15T23:51:55.299Z,99653.81
2023-01-15T23:59:30.895Z,99652.03
